Terminal Aerodrome Forecast
Issued by NWS

Current Version | Previous Version | Text Only | Print | Product List | Glossary Off
Versions: 1 2 3 4 5 6 7 8 9 10 11 12 13 14 15 16 17 18 19 20 21 22 23 24 25 26 27 28 29 30 31

831
FTUS41 KRNK 230520
TAFLWB
TAF
KLWB 230520Z 2306/2406 00000KT 6SM BR SKC
      TEMPO 2306/2309 5SM BR SCT003
     FM230900 00000KT 1/4SM FG BKN001
     FM231200 VRB03KT P6SM SCT040=

USA.gov is the U.S. government's official web portal to all federal, state and local government web resources and services.